PWSweather.com
Personal Weather Stations
Station Observations
KJ4AJP
Beautiful Downtown Gardner, Martin, TN 38237

Beautiful Downtown GardnerMartin, TN 38237

Lat: 36.358, Lon: -88.8994

Elevation: 384.3

Station Type: TP1080WC

http://weather.mambm.com/

Latest ConditionsUpdated 11:00:00 PM CDT Tuesday, Aug 20, 2019
Currently Today's Max Today's Min Today's Average
Temperature 72.0°F22.2°C 110.7°F43.7°C 57.4°F14.1°C 81.6°F27.6°C
Dew Point 71.7°F22.1°C 101.1°F38.4°C 57.1°F13.9°C 78.6°F25.9°C
Winds Calm Calm 6.9 mph -11.1 kmh - - 1.2 mph 1.9 kmh
Wind Gusts 2.2 mph3.5 kmh 13.6 mph21.9 kmh - -
Humidity 99% 99% 70% 91%
Pressure 29.98 in1015.2 mb 30.09 in1019.0 mb 29.93 in1013.5 mb -
Precipitation - 0.48 in12.2 mm - -
Hour Temp Dew Point Humidity Winds Wind Gusts Pressure Precip Precip Rate Daily Precip Total
11:00 PM 72.0°F22.2°C 71.7°F22.1°C 99% Calm Calm 2.2 mph3.5 kmh 29.98 in1015.2 mb 0.00 in0.0 mm 0.00 in0.0 mm 0.48 in12.2 mm
10:45 PM 72.1°F22.3°C 71.9°F22.2°C 99% Calm Calm 3.1 mph5.0 kmh 29.97 in1014.9 mb 0.00 in0.0 mm 0.00 in0.0 mm 0.48 in12.2 mm
10:30 PM 72.1°F22.3°C 71.9°F22.2°C 99% 1.6 mph SSE2.6 kmh SSE 9.2 mph14.8 kmh 29.95 in1014.2 mb 0.00 in0.0 mm 0.00 in0.0 mm 0.48 in12.2 mm
10:15 PM 72.1°F22.3°C 71.9°F22.2°C 99% 5.4 mph SSE8.7 kmh SSE 13.6 mph21.9 kmh 29.93 in1013.5 mb 0.00 in0.0 mm 0.00 in0.0 mm 0.48 in12.2 mm
10:00 PM 75.9°F24.4°C 75.7°F24.3°C 99% 4.5 mph S7.2 kmh S 12.1 mph19.5 kmh 29.96 in1014.6 mb 0.00 in0.0 mm 0.00 in0.0 mm 0.48 in12.2 mm
09:45 PM 60.1°F15.6°C 59.8°F15.4°C 99% Calm Calm 7.6 mph12.2 kmh 30.01 in1016.3 mb 0.00 in0.0 mm 0.00 in0.0 mm 0.48 in12.2 mm
09:30 PM 72.3°F22.4°C 72.1°F22.3°C 99% Calm Calm 6.0 mph9.7 kmh 30.01 in1016.3 mb 0.00 in0.0 mm 0.00 in0.0 mm 0.48 in12.2 mm
09:15 PM 72.5°F22.5°C 72.2°F22.3°C 99% Calm Calm 3.1 mph5.0 kmh 30.03 in1016.9 mb 0.01 in0.3 mm 0.00 in0.0 mm 0.48 in12.2 mm
09:00 PM 72.7°F22.6°C 72.4°F22.4°C 99% Calm Calm 3.1 mph5.0 kmh 30.04 in1017.3 mb 0.01 in0.3 mm 0.00 in0.0 mm 0.48 in12.2 mm
08:45 PM 72.9°F22.7°C 72.6°F22.6°C 99% Calm Calm 3.1 mph5.0 kmh 30.06 in1017.9 mb 0.01 in0.3 mm 0.00 in0.0 mm 0.48 in12.2 mm
08:30 PM 72.7°F22.6°C 72.4°F22.4°C 99% 0.7 mph NW1.1 kmh NW 5.4 mph8.7 kmh 30.06 in1017.9 mb 0.01 in0.3 mm 0.04 in1.0 mm 0.48 in12.2 mm
08:15 PM 72.7°F22.6°C 72.4°F22.4°C 99% 3.8 mph S6.1 kmh S 9.8 mph15.8 kmh 30.02 in1016.6 mb 0.00 in0.0 mm 0.00 in0.0 mm 0.47 in11.9 mm
08:00 PM 72.7°F22.6°C 72.4°F22.4°C 99% 2.2 mph SE3.5 kmh SE 5.4 mph8.7 kmh 30.01 in1016.3 mb 0.01 in0.3 mm 0.00 in0.0 mm 0.47 in11.9 mm
07:45 PM 72.7°F22.6°C 72.4°F22.4°C 99% 1.6 mph S2.6 kmh S 4.5 mph7.2 kmh 30.01 in1016.3 mb 0.01 in0.3 mm 0.00 in0.0 mm 0.47 in11.9 mm
07:30 PM 72.9°F22.7°C 72.6°F22.6°C 99% Calm Calm 0.7 mph1.1 kmh 30.04 in1017.3 mb 0.07 in1.8 mm 0.00 in0.0 mm 0.47 in11.9 mm
07:15 PM 72.9°F22.7°C 72.6°F22.6°C 99% Calm Calm 1.6 mph2.6 kmh 30.06 in1017.9 mb 0.18 in4.6 mm 0.00 in0.0 mm 0.47 in11.9 mm
07:00 PM 72.9°F22.7°C 72.6°F22.6°C 99% Calm Calm 0.7 mph1.1 kmh 30.06 in1017.9 mb 0.19 in4.8 mm 0.00 in0.0 mm 0.46 in11.7 mm
06:45 PM 73.0°F22.8°C 72.8°F22.7°C 99% Calm Calm 0.7 mph1.1 kmh 30.08 in1018.6 mb 0.30 in7.6 mm 0.00 in0.0 mm 0.46 in11.7 mm
06:30 PM 73.2°F22.9°C 73.0°F22.8°C 99% Calm Calm 1.6 mph2.6 kmh 30.09 in1019.0 mb 0.40 in10.2 mm 0.40 in10.2 mm 0.40 in10.2 mm
06:15 PM 73.6°F23.1°C 73.3°F22.9°C 99% Calm Calm 11.4 mph18.3 kmh 30.09 in1019.0 mb 0.30 in7.6 mm 0.12 in3.0 mm 0.30 in7.6 mm
06:00 PM 74.7°F23.7°C 74.1°F23.4°C 98% Calm Calm 2.2 mph3.5 kmh 30.07 in1018.3 mb 0.27 in6.9 mm 0.16 in4.1 mm 0.27 in6.9 mm
05:45 PM 79.0°F26.1°C 75.9°F24.4°C 90% Calm Calm 1.6 mph2.6 kmh 30.05 in1017.6 mb 0.15 in3.8 mm 0.60 in15.2 mm 0.15 in3.8 mm
05:30 PM 86.9°F30.5°C 78.1°F25.6°C 75% Calm Calm 13.6 mph21.9 kmh 30.05 in1017.6 mb 0.00 in0.0 mm 0.00 in0.0 mm 0.00 in0.0 mm
05:15 PM 94.8°F34.9°C 87.0°F30.6°C 78% 0.7 mph NW1.1 kmh NW 2.2 mph3.5 kmh 29.99 in1015.6 mb 0.00 in0.0 mm 0.00 in0.0 mm 0.00 in0.0 mm
05:00 PM 95.2°F35.1°C 86.5°F30.3°C 76% 0.7 mph N1.1 kmh N 2.2 mph3.5 kmh 29.98 in1015.2 mb 0.00 in0.0 mm 0.00 in0.0 mm 0.00 in0.0 mm
04:45 PM 95.2°F35.1°C 86.5°F30.3°C 76% Calm Calm 4.5 mph7.2 kmh 29.97 in1014.9 mb 0.00 in0.0 mm 0.00 in0.0 mm 0.00 in0.0 mm
04:30 PM 95.2°F35.1°C 85.7°F29.8°C 74% 0.7 mph SW1.1 kmh SW 4.5 mph7.2 kmh 29.97 in1014.9 mb 0.00 in0.0 mm 0.00 in0.0 mm 0.00 in0.0 mm
04:15 PM 95.9°F35.5°C 86.4°F30.2°C 74% 3.8 mph WNW6.1 kmh WNW 6.0 mph9.7 kmh 29.97 in1014.9 mb 0.00 in0.0 mm 0.00 in0.0 mm 0.00 in0.0 mm
04:00 PM 95.7°F35.4°C 85.3°F29.6°C 72% Calm Calm 7.6 mph12.2 kmh 29.97 in1014.9 mb 0.00 in0.0 mm 0.00 in0.0 mm 0.00 in0.0 mm
03:45 PM 97.2°F36.2°C 85.8°F29.9°C 70% 6.9 mph SW11.1 kmh SW 11.4 mph18.3 kmh 29.98 in1015.2 mb 0.00 in0.0 mm 0.00 in0.0 mm 0.00 in0.0 mm
03:30 PM 97.2°F36.2°C 86.3°F30.2°C 71% 2.2 mph SSW3.5 kmh SSW 9.2 mph14.8 kmh 29.97 in1014.9 mb 0.00 in0.0 mm 0.00 in0.0 mm 0.00 in0.0 mm
03:15 PM 96.3°F35.7°C 85.4°F29.7°C 71% 3.1 mph S5.0 kmh S 12.1 mph19.5 kmh 29.97 in1014.9 mb 0.00 in0.0 mm 0.00 in0.0 mm 0.00 in0.0 mm
03:00 PM 95.7°F35.4°C 86.2°F30.1°C 74% 3.8 mph SSW6.1 kmh SSW 9.8 mph15.8 kmh 29.97 in1014.9 mb 0.00 in0.0 mm 0.00 in0.0 mm 0.00 in0.0 mm
02:45 PM 110.7°F43.7°C 101.1°F38.4°C 75% 3.1 mph S5.0 kmh S 7.6 mph12.2 kmh 29.98 in1015.2 mb 0.00 in0.0 mm 0.00 in0.0 mm 0.00 in0.0 mm
02:30 PM 95.2°F35.1°C 86.1°F30.1°C 75% 2.2 mph SSW3.5 kmh SSW 6.9 mph11.1 kmh 29.99 in1015.6 mb 0.00 in0.0 mm 0.00 in0.0 mm 0.00 in0.0 mm
02:15 PM 97.0°F36.1°C 86.1°F30.1°C 71% 2.2 mph SSW3.5 kmh SSW 6.9 mph11.1 kmh 30.00 in1015.9 mb 0.00 in0.0 mm 0.00 in0.0 mm 0.00 in0.0 mm
02:00 PM 97.7°F36.5°C 86.8°F30.4°C 71% 2.2 mph S3.5 kmh S 9.8 mph15.8 kmh 30.01 in1016.3 mb 0.00 in0.0 mm 0.00 in0.0 mm 0.00 in0.0 mm
01:45 PM 97.9°F36.6°C 87.9°F31.1°C 73% 3.1 mph SW5.0 kmh SW 7.6 mph12.2 kmh 30.02 in1016.6 mb 0.00 in0.0 mm 0.00 in0.0 mm 0.00 in0.0 mm
01:30 PM 97.5°F36.4°C 86.6°F30.3°C 71% 3.8 mph SW6.1 kmh SW 8.3 mph13.4 kmh 30.02 in1016.6 mb 0.00 in0.0 mm 0.00 in0.0 mm 0.00 in0.0 mm
01:15 PM 96.8°F36.0°C 86.4°F30.2°C 72% 0.7 mph SW1.1 kmh SW 6.9 mph11.1 kmh 30.02 in1016.6 mb 0.00 in0.0 mm 0.00 in0.0 mm 0.00 in0.0 mm
01:00 PM 86.7°F30.4°C 77.9°F25.5°C 75% 3.1 mph S5.0 kmh S 7.6 mph12.2 kmh 30.02 in1016.6 mb 0.00 in0.0 mm 0.00 in0.0 mm 0.00 in0.0 mm
12:45 PM 95.4°F35.2°C 87.1°F30.6°C 77% 1.6 mph S2.6 kmh S 5.4 mph8.7 kmh 30.03 in1016.9 mb 0.00 in0.0 mm 0.00 in0.0 mm 0.00 in0.0 mm
12:30 PM 95.7°F35.4°C 87.0°F30.6°C 76% Calm Calm -- 30.03 in1016.9 mb 0.00 in0.0 mm 0.00 in0.0 mm 0.00 in0.0 mm
12:15 PM 95.9°F35.5°C 87.6°F30.9°C 77% 1.6 mph WSW2.6 kmh WSW 5.4 mph8.7 kmh 30.04 in1017.3 mb 0.00 in0.0 mm 0.00 in0.0 mm 0.00 in0.0 mm
12:00 PM 95.4°F35.2°C 86.7°F30.4°C 76% 3.8 mph S6.1 kmh S 6.0 mph9.7 kmh 30.04 in1017.3 mb 0.00 in0.0 mm 0.00 in0.0 mm 0.00 in0.0 mm
11:45 AM 95.4°F35.2°C 87.1°F30.6°C 77% 2.2 mph SW3.5 kmh SW 8.3 mph13.4 kmh 30.03 in1016.9 mb 0.00 in0.0 mm 0.00 in0.0 mm 0.00 in0.0 mm
11:30 AM 95.2°F35.1°C 87.7°F30.9°C 79% 4.5 mph SW7.2 kmh SW 9.8 mph15.8 kmh 30.04 in1017.3 mb 0.00 in0.0 mm 0.00 in0.0 mm 0.00 in0.0 mm
11:15 AM 94.6°F34.8°C 87.6°F30.9°C 80% 3.8 mph SSW6.1 kmh SSW 7.6 mph12.2 kmh 30.05 in1017.6 mb 0.00 in0.0 mm 0.00 in0.0 mm 0.00 in0.0 mm
11:00 AM 93.7°F34.3°C 87.5°F30.8°C 82% 3.1 mph S5.0 kmh S 6.9 mph11.1 kmh 30.05 in1017.6 mb 0.00 in0.0 mm 0.00 in0.0 mm 0.00 in0.0 mm
10:45 AM 92.5°F33.6°C 87.4°F30.8°C 85% Calm Calm 5.4 mph8.7 kmh 30.05 in1017.6 mb 0.00 in0.0 mm 0.00 in0.0 mm 0.00 in0.0 mm
10:30 AM 91.2°F32.9°C 86.9°F30.5°C 87% 0.7 mph SW1.1 kmh SW 6.9 mph11.1 kmh 30.05 in1017.6 mb 0.00 in0.0 mm 0.00 in0.0 mm 0.00 in0.0 mm
10:15 AM 90.5°F32.5°C 88.0°F31.1°C 92% 2.2 mph WSW3.5 kmh WSW 3.8 mph6.1 kmh 30.06 in1017.9 mb 0.00 in0.0 mm 0.00 in0.0 mm 0.00 in0.0 mm
10:00 AM 88.7°F31.5°C 87.5°F30.8°C 96% 0.7 mph WSW1.1 kmh WSW 4.5 mph7.2 kmh 30.06 in1017.9 mb 0.00 in0.0 mm 0.00 in0.0 mm 0.00 in0.0 mm
09:45 AM 70.7°F21.5°C 70.4°F21.3°C 99% 0.7 mph W1.1 kmh W 5.4 mph8.7 kmh 30.07 in1018.3 mb 0.00 in0.0 mm 0.00 in0.0 mm 0.00 in0.0 mm
09:30 AM 85.1°F29.5°C 84.9°F29.4°C 99% 1.6 mph NNE2.6 kmh NNE 3.8 mph6.1 kmh 30.07 in1018.3 mb 0.00 in0.0 mm 0.00 in0.0 mm 0.00 in0.0 mm
09:15 AM 82.6°F28.1°C 82.4°F28.0°C 99% Calm Calm 3.8 mph6.1 kmh 30.06 in1017.9 mb 0.00 in0.0 mm 0.00 in0.0 mm 0.00 in0.0 mm
09:00 AM 81.0°F27.2°C 80.7°F27.1°C 99% 1.6 mph SSW2.6 kmh SSW 5.4 mph8.7 kmh 30.06 in1017.9 mb 0.00 in0.0 mm 0.00 in0.0 mm 0.00 in0.0 mm
08:45 AM 79.9°F26.6°C 79.6°F26.4°C 99% 1.6 mph S2.6 kmh S 7.6 mph12.2 kmh 30.05 in1017.6 mb 0.00 in0.0 mm 0.00 in0.0 mm 0.00 in0.0 mm
08:30 AM 78.6°F25.9°C 78.4°F25.8°C 99% 3.1 mph S5.0 kmh S 5.4 mph8.7 kmh 30.06 in1017.9 mb 0.00 in0.0 mm 0.00 in0.0 mm 0.00 in0.0 mm
08:15 AM 77.9°F25.5°C 77.7°F25.4°C 99% 3.8 mph SSE6.1 kmh SSE 7.6 mph12.2 kmh 30.04 in1017.3 mb 0.00 in0.0 mm 0.00 in0.0 mm 0.00 in0.0 mm
08:00 AM 77.4°F25.2°C 77.1°F25.1°C 99% 2.2 mph S3.5 kmh S 6.0 mph9.7 kmh 30.03 in1016.9 mb 0.00 in0.0 mm 0.00 in0.0 mm 0.00 in0.0 mm
07:45 AM 76.8°F24.9°C 76.6°F24.8°C 99% 1.6 mph SSE2.6 kmh SSE 6.0 mph9.7 kmh 30.04 in1017.3 mb 0.00 in0.0 mm 0.00 in0.0 mm 0.00 in0.0 mm
07:30 AM 57.4°F14.1°C 57.1°F13.9°C 99% 1.6 mph S2.6 kmh S 5.4 mph8.7 kmh 30.01 in1016.3 mb 0.00 in0.0 mm 0.00 in0.0 mm 0.00 in0.0 mm
07:15 AM 75.4°F24.1°C 75.1°F23.9°C 99% 0.7 mph S1.1 kmh S 6.0 mph9.7 kmh 30.00 in1015.9 mb 0.00 in0.0 mm 0.00 in0.0 mm 0.00 in0.0 mm
07:00 AM 74.8°F23.8°C 74.6°F23.7°C 99% 0.7 mph S1.1 kmh S 3.8 mph6.1 kmh 30.01 in1016.3 mb 0.00 in0.0 mm 0.00 in0.0 mm 0.00 in0.0 mm
06:45 AM 74.7°F23.7°C 74.4°F23.6°C 99% 0.7 mph SE1.1 kmh SE 3.1 mph5.0 kmh 30.00 in1015.9 mb 0.00 in0.0 mm 0.00 in0.0 mm 0.00 in0.0 mm
06:30 AM 74.5°F23.6°C 74.2°F23.4°C 99% 0.7 mph S1.1 kmh S 3.1 mph5.0 kmh 30.00 in1015.9 mb 0.00 in0.0 mm 0.00 in0.0 mm 0.00 in0.0 mm
06:15 AM 74.8°F23.8°C 74.6°F23.7°C 99% Calm Calm 2.2 mph3.5 kmh 30.02 in1016.6 mb 0.00 in0.0 mm 0.00 in0.0 mm 0.00 in0.0 mm
06:00 AM 74.8°F23.8°C 74.6°F23.7°C 99% 1.6 mph SSE2.6 kmh SSE 3.1 mph5.0 kmh 30.02 in1016.6 mb 0.00 in0.0 mm 0.00 in0.0 mm 0.00 in0.0 mm
05:45 AM 75.0°F23.9°C 74.8°F23.8°C 99% Calm Calm 2.2 mph3.5 kmh 30.02 in1016.6 mb 0.00 in0.0 mm 0.00 in0.0 mm 0.00 in0.0 mm
05:30 AM 75.2°F24.0°C 75.0°F23.9°C 99% 0.7 mph SE1.1 kmh SE 3.1 mph5.0 kmh 30.02 in1016.6 mb 0.00 in0.0 mm 0.00 in0.0 mm 0.00 in0.0 mm
05:15 AM 75.4°F24.1°C 75.1°F23.9°C 99% 0.7 mph SE1.1 kmh SE 2.2 mph3.5 kmh 30.02 in1016.6 mb 0.00 in0.0 mm 0.00 in0.0 mm 0.00 in0.0 mm
05:00 AM 75.6°F24.2°C 75.3°F24.1°C 99% Calm Calm 1.6 mph2.6 kmh 30.01 in1016.3 mb 0.00 in0.0 mm 0.00 in0.0 mm 0.00 in0.0 mm
04:45 AM 75.4°F24.1°C 75.1°F23.9°C 99% Calm Calm 0.7 mph1.1 kmh 30.01 in1016.3 mb 0.00 in0.0 mm 0.00 in0.0 mm 0.00 in0.0 mm
04:30 AM 75.7°F24.3°C 75.5°F24.2°C 99% Calm Calm 1.6 mph2.6 kmh 30.01 in1016.3 mb 0.00 in0.0 mm 0.00 in0.0 mm 0.00 in0.0 mm
04:15 AM 75.6°F24.2°C 75.3°F24.1°C 99% Calm Calm 0.7 mph1.1 kmh 30.00 in1015.9 mb 0.00 in0.0 mm 0.00 in0.0 mm 0.00 in0.0 mm
04:00 AM 75.7°F24.3°C 75.5°F24.2°C 99% Calm Calm 0.7 mph1.1 kmh 29.99 in1015.6 mb 0.00 in0.0 mm 0.00 in0.0 mm 0.00 in0.0 mm
03:45 AM 75.6°F24.2°C 75.3°F24.1°C 99% Calm Calm 1.6 mph2.6 kmh 30.00 in1015.9 mb 0.00 in0.0 mm 0.00 in0.0 mm 0.00 in0.0 mm
03:30 AM 75.6°F24.2°C 75.3°F24.1°C 99% Calm Calm 3.1 mph5.0 kmh 30.00 in1015.9 mb 0.00 in0.0 mm 0.00 in0.0 mm 0.00 in0.0 mm
03:15 AM 75.7°F24.3°C 75.5°F24.2°C 99% Calm Calm 1.6 mph2.6 kmh 30.00 in1015.9 mb 0.00 in0.0 mm 0.00 in0.0 mm 0.00 in0.0 mm
03:00 AM 75.9°F24.4°C 75.7°F24.3°C 99% 0.7 mph S1.1 kmh S 1.6 mph2.6 kmh 30.00 in1015.9 mb 0.00 in0.0 mm 0.00 in0.0 mm 0.00 in0.0 mm
02:45 AM 76.3°F24.6°C 76.0°F24.4°C 99% Calm Calm 1.6 mph2.6 kmh 30.00 in1015.9 mb 0.00 in0.0 mm 0.00 in0.0 mm 0.00 in0.0 mm
02:30 AM 76.5°F24.7°C 76.2°F24.6°C 99% Calm Calm -- 29.99 in1015.6 mb 0.00 in0.0 mm 0.00 in0.0 mm 0.00 in0.0 mm
02:15 AM 76.5°F24.7°C 76.2°F24.6°C 99% Calm Calm -- 29.99 in1015.6 mb 0.00 in0.0 mm 0.00 in0.0 mm 0.00 in0.0 mm
02:00 AM 76.5°F24.7°C 76.2°F24.6°C 99% Calm Calm -- 30.00 in1015.9 mb 0.00 in0.0 mm 0.00 in0.0 mm 0.00 in0.0 mm
01:45 AM 76.6°F24.8°C 76.4°F24.7°C 99% Calm Calm 0.7 mph1.1 kmh 30.01 in1016.3 mb 0.00 in0.0 mm 0.00 in0.0 mm 0.00 in0.0 mm
01:30 AM 76.8°F24.9°C 76.6°F24.8°C 99% Calm Calm -- 30.00 in1015.9 mb 0.00 in0.0 mm 0.00 in0.0 mm 0.00 in0.0 mm
01:15 AM 77.0°F25.0°C 76.8°F24.9°C 99% Calm Calm -- 29.99 in1015.6 mb 0.00 in0.0 mm 0.00 in0.0 mm 0.00 in0.0 mm
01:00 AM 77.2°F25.1°C 76.9°F24.9°C 99% Calm Calm -- 30.00 in1015.9 mb 0.00 in0.0 mm 0.00 in0.0 mm 0.00 in0.0 mm
12:45 AM 77.4°F25.2°C 77.1°F25.1°C 99% Calm Calm -- 30.00 in1015.9 mb 0.00 in0.0 mm 0.00 in0.0 mm 0.00 in0.0 mm
12:30 AM 77.5°F25.3°C 77.3°F25.2°C 99% Calm Calm 1.6 mph2.6 kmh 30.00 in1015.9 mb 0.00 in0.0 mm 0.00 in0.0 mm 0.00 in0.0 mm
12:15 AM 77.7°F25.4°C 77.5°F25.3°C 99% Calm Calm 0.7 mph1.1 kmh 30.00 in1015.9 mb 0.00 in0.0 mm 0.00 in0.0 mm 0.00 in0.0 mm
12:00 AM 77.9°F25.5°C 77.7°F25.4°C 99% Calm Calm 1.6 mph2.6 kmh 30.00 in1015.9 mb 0.00 in0.0 mm 0.00 in0.0 mm 0.00 in0.0 mm